Share

Alligator, MS

12:53 AM CDT on April 24, 2014 (GMT -0500)
Clarksdale (KMSCLARK2) Elev 164 ft | 34.10 °N, 90.61 °W | Change Station

Current weather conditions updated 1 second ago

Clear
Clear
58.2 °F
Feels Like 58.2 °F
N
0.0
Wind Variable Wind from East
Gusts 0.0 mph
Sunrise 6:21 AM
Sunset 7:41 PM
Moon Waning Crescent

Today is forecast to be Warmer than yesterday. Showers and thunderstorms late.

Pressure 29.92 in
Visibility 10.0 miles
Clouds Clear
Dew Point 49 °F
Humidity 71%
Rainfall 0.00 in
Snow Depth Not available.
UV 0 out of 16
Pollen 8.70 out of 12
Air Quality Not available.
Flu Activity No Activity
METAR KRNV 240535Z AUTO 23003KT 10SM CLR 14/12 A2992 RMK AO2 T01430120

More Conditions Fewer Conditions

Pressure 29.92 in
Visibility 10.0 miles
Clouds Clear
Dew Point 49 °F
Humidity 71%
Rainfall 0.00 in
Snow Depth Not available.
UV 0 out of 16
Pollen 8.70 out of 12
Air Quality Not available.
Flu Activity No Activity
METAR KRNV 240535Z AUTO 23003KT 10SM CLR 14/12 A2992 RMK AO2 T01430120

More Conditions Fewer Conditions

10-Day Weather Forecast

Almanac

Astronomy

Apr. 24, 2014 Rise Set
Actual Time 6:21 AM CDT 7:41 PM CDT
Civil Twilight 5:55 AM CDT 8:07 PM CDT
Nautical Twilight 5:23 AM CDT 8:39 PM CDT
Astronomical Twilight 4:50 AM CDT 9:12 PM CDT
Moon 3:18 AM CDT 3:09 PM CDT
Length of Visible Light 14h 12m
Length of Day
13h 20m
Tomorrow will be 1m 54s longer.
Waning Crescent, 29% of the Moon is Illuminated
Today
Waning Crescent
Apr 29
New
May 6
First Quarter
May 14
Full
May 21
Last Quarter

Today's Extremes

State Highs State Lows

Community

  • Stacked
    Stacked
  • clouds approaching Red Sox Nation
    clouds approaching Red Sox Nation
  • Balance
    Balance
  • Nestled In
    Nestled In
  • Stunning Sunrise
    Stunning Sunrise

WunderPhotos

Upload Photos

1,704,572 photos uploaded!

WunderBlogs® & News

Nearby

Snow Depth

Station Depth Elevation
No new snow has been reported.

Coastal Water Temperatures

Place Temperature
No Stations Reporting

Earthquake Activity

City Distance Mag. Time & Date
No recent earthquake activity has been reported nearby.
Minimum magnitude displayed is 2.5.

Nearby Weather Stations

Station Location Temp. Dew Point Humidity Wind Precip. Elev Updated Type
Clarksdale, Clarksdale, MS 58.2 °F 49 °F 71% East  at  0.0 mph 0.00 in / hr 164 ft 12:53 AM CDT Rapid Fire

Show More Stations Show Fewer Stations

What do you think?

We're not finished. Please let us know what you like, what you don't like, and what you are still missing.